createdAt,value
2023-03-15T00:01:31.503Z,5.10
2023-03-15T00:04:00.463Z,4.80
2023-03-15T00:06:29.677Z,4.50
2023-03-15T00:08:58.790Z,4.90
2023-03-15T00:11:31.386Z,4.70
2023-03-15T00:14:01.603Z,4.40
2023-03-15T00:16:33.318Z,4.90
2023-03-15T00:19:03.586Z,4.80
2023-03-15T00:21:33.441Z,5.10
2023-03-15T00:24:02.433Z,4.50
2023-03-15T00:26:32.220Z,4.60
2023-03-15T00:29:01.465Z,5.20
2023-03-15T00:31:33.723Z,4.50
2023-03-15T00:34:02.853Z,4.70
2023-03-15T00:36:32.749Z,5.00
2023-03-15T00:39:02.345Z,4.80
2023-03-15T00:41:32.758Z,5.20
2023-03-15T00:44:06.993Z,5.30
2023-03-15T00:46:36.450Z,5.10
2023-03-15T00:49:05.744Z,5.20
2023-03-15T00:51:35.632Z,4.80
2023-03-15T00:54:04.565Z,5.40
2023-03-15T00:56:38.069Z,5.00
2023-03-15T00:59:07.606Z,5.30
2023-03-15T01:01:36.817Z,5.70
2023-03-15T01:04:07.158Z,4.80
2023-03-15T01:06:36.557Z,5.30
2023-03-15T01:09:06.241Z,5.20
2023-03-15T01:11:37.877Z,5.40
2023-03-15T01:14:09.387Z,5.50
2023-03-15T01:16:41.154Z,5.00
2023-03-15T01:19:14.628Z,4.70
2023-03-15T01:21:44.785Z,5.00
2023-03-15T01:24:14.873Z,5.40
2023-03-15T01:26:43.644Z,5.20
2023-03-15T01:29:14.077Z,6.00
2023-03-15T01:31:46.805Z,5.40
2023-03-15T01:34:17.102Z,5.30
2023-03-15T01:36:52.896Z,5.40
2023-03-15T01:39:23.721Z,5.60
2023-03-15T01:41:52.546Z,6.00
2023-03-15T01:44:22.493Z,5.70
2023-03-15T01:46:51.529Z,5.50
2023-03-15T01:49:30.316Z,4.80
2023-03-15T01:52:06.622Z,5.50
2023-03-15T01:55:05.876Z,5.50
2023-03-15T01:57:39.426Z,5.70
2023-03-15T02:00:15.839Z,4.90
2023-03-15T02:03:05.367Z,5.20
2023-03-15T02:05:37.611Z,5.90
2023-03-15T02:08:08.556Z,5.10
2023-03-15T02:10:52.217Z,5.50
2023-03-15T02:13:23.945Z,5.90
2023-03-15T02:15:53.997Z,5.50
2023-03-15T02:18:39.778Z,5.50
2023-03-15T02:21:25.227Z,5.60
2023-03-15T02:24:33.632Z,5.80
2023-03-15T02:27:02.906Z,6.40
2023-03-15T02:29:32.107Z,8.80
2023-03-15T02:32:06.283Z,7.70
2023-03-15T02:34:36.467Z,7.70
2023-03-15T02:37:05.399Z,9.30
2023-03-15T02:39:34.459Z,8.70
2023-03-15T02:42:03.479Z,8.50
2023-03-15T02:44:38.597Z,8.20
2023-03-15T02:47:20.939Z,7.70
2023-03-15T02:49:51.444Z,8.20
2023-03-15T02:52:21.629Z,8.40
2023-03-15T02:54:50.776Z,9.20
2023-03-15T02:57:20.914Z,7.80
2023-03-15T02:59:51.242Z,8.90
2023-03-15T03:02:26.464Z,8.40
2023-03-15T03:04:55.567Z,7.50
2023-03-15T03:07:24.273Z,6.70
2023-03-15T03:09:59.429Z,5.90
2023-03-15T03:12:29.368Z,6.50
2023-03-15T03:15:04.127Z,6.30
2023-03-15T03:17:37.791Z,6.60
2023-03-15T03:20:12.069Z,6.90
2023-03-15T03:22:45.268Z,6.70
2023-03-15T03:25:14.771Z,6.90
2023-03-15T03:27:48.390Z,6.30
2023-03-15T03:30:17.970Z,7.30
2023-03-15T03:32:51.293Z,6.70
2023-03-15T03:35:21.784Z,7.00
2023-03-15T03:37:54.218Z,6.80
2023-03-15T03:40:36.124Z,6.80
2023-03-15T03:43:07.894Z,6.50
2023-03-15T03:45:36.852Z,6.90
2023-03-15T03:48:07.187Z,6.40
2023-03-15T03:50:36.306Z,6.10
2023-03-15T03:53:06.951Z,7.40
2023-03-15T03:55:38.455Z,7.00
2023-03-15T03:58:10.204Z,7.20
2023-03-15T04:00:46.703Z,6.50
2023-03-15T04:03:15.763Z,7.10
2023-03-15T04:05:49.043Z,7.30
2023-03-15T04:08:23.265Z,6.80
2023-03-15T04:10:57.453Z,7.70
2023-03-15T04:13:30.378Z,8.10
2023-03-15T04:18:45.063Z,7.40
2023-03-15T04:21:14.570Z,7.60
2023-03-15T04:23:45.653Z,7.10
2023-03-15T04:26:20.487Z,7.20
2023-03-15T04:28:59.749Z,7.30
2023-03-15T04:32:02.132Z,7.20
2023-03-15T04:34:51.668Z,8.50
2023-03-15T04:37:50.579Z,9.20
2023-03-15T04:40:38.924Z,8.30
2023-03-15T04:43:26.707Z,7.90
2023-03-15T04:46:11.298Z,8.60
2023-03-15T04:48:58.890Z,7.90
2023-03-15T04:51:56.769Z,9.00
2023-03-15T04:54:35.479Z,8.20
2023-03-15T04:57:23.117Z,8.00
2023-03-15T05:00:08.080Z,7.60
2023-03-15T05:02:56.249Z,8.40
2023-03-15T05:05:34.677Z,7.80
2023-03-15T05:08:39.977Z,7.40
2023-03-15T05:11:18.996Z,8.20
2023-03-15T05:13:55.837Z,7.90
2023-03-15T05:16:35.729Z,8.00
2023-03-15T05:19:28.841Z,8.00
2023-03-15T05:22:09.711Z,10.20
2023-03-15T05:24:46.652Z,9.10
2023-03-15T05:27:35.491Z,10.80
2023-03-15T05:30:23.819Z,12.30
2023-03-15T05:33:07.106Z,11.00
2023-03-15T05:35:49.267Z,9.90
2023-03-15T05:38:35.579Z,7.90
2023-03-15T05:41:25.189Z,7.90
2023-03-15T05:44:17.271Z,7.90
2023-03-15T05:47:19.070Z,7.80
2023-03-15T05:50:03.989Z,8.80
2023-03-15T05:52:57.634Z,9.40
2023-03-15T05:55:37.521Z,8.80
2023-03-15T05:58:20.862Z,8.30
2023-03-15T06:01:21.569Z,8.30
2023-03-15T06:04:15.721Z,9.10
2023-03-15T06:06:45.650Z,8.60
2023-03-15T06:09:14.777Z,7.90
2023-03-15T06:11:45.856Z,7.60
2023-03-15T06:14:14.916Z,9.80
2023-03-15T06:16:54.034Z,8.30
2023-03-15T06:19:25.166Z,10.30
2023-03-15T06:21:55.714Z,8.50
2023-03-15T06:24:32.973Z,8.90
2023-03-15T06:27:02.062Z,8.10
2023-03-15T06:29:31.099Z,8.10
2023-03-15T06:32:01.234Z,7.90
2023-03-15T06:34:30.895Z,9.50
2023-03-15T06:37:01.759Z,9.40
2023-03-15T06:39:34.925Z,8.30
2023-03-15T06:42:05.425Z,9.70
2023-03-15T06:44:35.853Z,8.80
2023-03-15T06:47:08.708Z,8.50
2023-03-15T06:49:41.639Z,8.20
2023-03-15T06:52:12.127Z,8.20
2023-03-15T06:54:41.232Z,8.40
2023-03-15T06:57:10.306Z,8.90
2023-03-15T06:59:40.024Z,8.50
2023-03-15T07:02:19.166Z,7.80
2023-03-15T07:04:48.599Z,8.30
2023-03-15T07:07:23.094Z,8.60
2023-03-15T07:09:52.984Z,7.80
2023-03-15T07:12:23.343Z,7.70
2023-03-15T07:14:54.944Z,9.20
2023-03-15T07:17:23.964Z,8.10
2023-03-15T07:19:56.673Z,8.00
2023-03-15T07:22:27.159Z,8.50
2023-03-15T07:24:56.145Z,9.90
2023-03-15T07:27:25.923Z,8.30
2023-03-15T07:29:56.064Z,8.80
2023-03-15T07:32:25.531Z,8.10
2023-03-15T07:34:58.793Z,8.20
2023-03-15T07:37:29.807Z,8.70
2023-03-15T07:40:01.076Z,9.40
2023-03-15T07:42:30.298Z,10.40
2023-03-15T07:45:01.291Z,9.20
2023-03-15T07:47:33.988Z,8.00
2023-03-15T07:50:05.895Z,8.00
2023-03-15T07:52:34.980Z,8.00
2023-03-15T07:55:08.907Z,8.30
2023-03-15T07:57:38.378Z,7.70
2023-03-15T08:00:14.159Z,8.30
2023-03-15T08:02:43.705Z,7.70
2023-03-15T08:05:12.780Z,7.60
2023-03-15T08:07:42.997Z,8.20
2023-03-15T08:10:12.620Z,7.90
2023-03-15T08:12:44.817Z,7.50
2023-03-15T08:15:14.319Z,7.60
2023-03-15T08:17:44.689Z,7.70
2023-03-15T08:20:18.241Z,8.00
2023-03-15T08:22:49.380Z,8.40
2023-03-15T08:25:20.861Z,8.90
2023-03-15T08:30:21.464Z,7.20
2023-03-15T08:32:53.048Z,7.00
2023-03-15T08:35:25.342Z,7.60
2023-03-15T08:37:57.696Z,7.30
2023-03-15T08:40:26.953Z,7.50
2023-03-15T08:42:56.793Z,7.80
2023-03-15T08:45:26.998Z,7.10
2023-03-15T08:47:59.487Z,7.50
2023-03-15T08:50:35.272Z,8.40
2023-03-15T08:53:05.046Z,7.50
2023-03-15T08:55:34.351Z,7.70
2023-03-15T08:58:04.922Z,8.00
2023-03-15T09:00:34.656Z,8.40
2023-03-15T09:03:04.294Z,7.00
2023-03-15T09:05:33.320Z,7.80
2023-03-15T09:08:02.591Z,7.20
2023-03-15T09:10:32.202Z,7.50
2023-03-15T09:13:01.239Z,7.30
2023-03-15T09:15:30.977Z,7.10
2023-03-15T09:18:00.206Z,7.40
2023-03-15T09:20:30.090Z,6.80
2023-03-15T09:23:01.750Z,6.20
2023-03-15T09:25:31.777Z,6.60
2023-03-15T09:28:00.964Z,6.20
2023-03-15T09:30:30.918Z,6.60
2023-03-15T09:33:01.275Z,6.90
2023-03-15T09:35:30.588Z,5.50
2023-03-15T09:38:01.146Z,6.10
2023-03-15T09:40:35.137Z,6.10
2023-03-15T09:43:15.510Z,5.80
2023-03-15T09:46:03.474Z,6.00
2023-03-15T09:48:44.940Z,6.50
2023-03-15T09:51:56.150Z,6.50
2023-03-15T09:54:41.685Z,6.40
2023-03-15T09:57:24.443Z,6.50
2023-03-15T09:59:58.049Z,6.30
2023-03-15T10:02:31.078Z,6.60
2023-03-15T10:05:27.930Z,5.70
2023-03-15T10:07:57.133Z,6.30
2023-03-15T10:10:32.693Z,6.90
2023-03-15T10:13:09.965Z,5.90
2023-03-15T10:15:39.351Z,5.70
2023-03-15T10:18:27.366Z,5.80
2023-03-15T10:21:39.742Z,6.20
2023-03-15T10:24:40.387Z,6.30
2023-03-15T10:27:17.307Z,7.10
2023-03-15T10:29:46.244Z,6.00
2023-03-15T10:32:18.383Z,5.70
2023-03-15T10:34:52.646Z,5.70
2023-03-15T10:37:25.436Z,6.30
2023-03-15T10:39:59.220Z,5.90
2023-03-15T10:42:32.882Z,6.10
2023-03-15T10:45:21.586Z,6.40
2023-03-15T10:47:59.565Z,6.30
2023-03-15T10:50:35.672Z,6.60
2023-03-15T10:53:11.519Z,15.30
2023-03-15T10:55:45.308Z,12.90
2023-03-15T10:58:28.933Z,7.50
2023-03-15T11:01:08.089Z,5.80
2023-03-15T11:03:38.569Z,8.50
2023-03-15T11:06:26.845Z,8.30
2023-03-15T11:09:12.296Z,10.50
2023-03-15T11:12:04.940Z,7.60
2023-03-15T11:14:41.429Z,6.90
2023-03-15T11:17:18.661Z,7.70
2023-03-15T11:20:10.497Z,6.00
2023-03-15T11:22:48.215Z,5.30
2023-03-15T11:25:17.691Z,8.70
2023-03-15T11:27:51.571Z,10.50
2023-03-15T11:30:24.470Z,6.30
2023-03-15T11:32:54.222Z,6.60
2023-03-15T11:35:34.140Z,6.20
2023-03-15T11:38:15.701Z,5.70
2023-03-15T11:40:48.576Z,6.30
2023-03-15T11:43:28.472Z,6.00
2023-03-15T11:45:59.934Z,8.00
2023-03-15T11:48:51.239Z,7.80
2023-03-15T11:51:21.244Z,6.70
2023-03-15T11:54:15.530Z,6.90
2023-03-15T11:56:58.542Z,6.50
2023-03-15T11:59:30.834Z,8.10
2023-03-15T12:02:06.882Z,7.10
2023-03-15T12:04:35.937Z,7.70
2023-03-15T12:07:16.732Z,7.60
2023-03-15T12:09:53.209Z,8.00
2023-03-15T12:12:26.235Z,7.60
2023-03-15T12:15:20.232Z,7.90
2023-03-15T12:18:00.936Z,6.90
2023-03-15T12:20:50.819Z,7.40
2023-03-15T12:23:20.095Z,7.30
2023-03-15T12:26:07.888Z,7.50
2023-03-15T12:28:50.266Z,7.80
2023-03-15T12:31:19.364Z,7.00
2023-03-15T12:33:51.840Z,7.70
2023-03-15T12:36:39.986Z,10.50
2023-03-15T12:39:18.583Z,10.60
2023-03-15T12:41:49.416Z,10.00
2023-03-15T12:44:34.252Z,9.70
2023-03-15T12:47:04.710Z,8.00
2023-03-15T12:49:36.388Z,8.00
2023-03-15T12:52:11.380Z,7.40
2023-03-15T12:55:12.358Z,8.20
2023-03-15T12:57:50.149Z,8.10
2023-03-15T13:00:23.166Z,8.70
2023-03-15T13:03:22.746Z,8.10
2023-03-15T13:06:03.765Z,6.90
2023-03-15T13:11:19.735Z,6.30
2023-03-15T13:13:52.517Z,6.20
2023-03-15T13:16:40.492Z,7.80
2023-03-15T13:19:14.769Z,7.90
2023-03-15T13:22:15.854Z,7.70
2023-03-15T13:25:05.583Z,7.70
2023-03-15T13:27:51.492Z,9.00
2023-03-15T13:30:46.783Z,7.60
2023-03-15T13:33:22.796Z,8.40
2023-03-15T13:36:07.422Z,7.00
2023-03-15T13:38:47.482Z,7.80
2023-03-15T13:41:26.072Z,7.80
2023-03-15T13:43:57.110Z,6.50
2023-03-15T13:48:56.803Z,7.60
2023-03-15T13:51:36.604Z,7.20
2023-03-15T13:54:08.452Z,9.50
2023-03-15T13:56:49.887Z,10.20
2023-03-15T14:01:49.339Z,10.10
2023-03-15T14:04:21.588Z,10.70
2023-03-15T14:06:51.323Z,9.50
2023-03-15T14:09:24.701Z,11.40
2023-03-15T14:12:07.844Z,11.40
2023-03-15T14:17:29.674Z,9.90
2023-03-15T14:20:09.328Z,9.60
2023-03-15T14:22:42.054Z,10.40
2023-03-15T14:25:21.737Z,10.70
2023-03-15T14:27:50.923Z,10.20
2023-03-15T14:30:24.723Z,9.90
2023-03-15T14:32:55.651Z,11.20
2023-03-15T14:35:26.605Z,11.30
2023-03-15T14:38:04.469Z,10.60
2023-03-15T14:40:36.183Z,11.70
2023-03-15T14:43:06.911Z,11.50
2023-03-15T14:45:37.142Z,10.80
2023-03-15T14:48:15.382Z,11.80
2023-03-15T14:50:45.352Z,11.20
2023-03-15T14:53:17.141Z,11.30
2023-03-15T14:55:49.592Z,10.60
2023-03-15T14:58:21.110Z,11.00
2023-03-15T15:00:51.836Z,11.20
2023-03-15T15:03:34.361Z,11.30
2023-03-15T15:06:03.503Z,10.80
2023-03-15T15:08:33.045Z,10.90
2023-03-15T15:11:03.174Z,10.70
2023-03-15T15:13:38.135Z,10.60
2023-03-15T15:16:08.004Z,10.40
2023-03-15T15:18:37.303Z,9.00
2023-03-15T15:21:13.445Z,9.10
2023-03-15T15:23:57.322Z,10.00
2023-03-15T15:26:30.412Z,9.20
2023-03-15T15:29:01.219Z,10.30
2023-03-15T15:31:34.602Z,9.50
2023-03-15T15:34:04.751Z,9.40
2023-03-15T15:36:35.526Z,8.80
2023-03-15T15:39:07.211Z,9.30
2023-03-15T15:41:36.174Z,10.00
2023-03-15T15:44:15.211Z,9.00
2023-03-15T15:46:44.017Z,10.10
2023-03-15T15:49:13.165Z,10.50
2023-03-15T15:51:46.755Z,9.60
2023-03-15T15:54:25.471Z,10.00
2023-03-15T15:56:58.855Z,9.00
2023-03-15T15:59:28.343Z,9.80
2023-03-15T16:02:02.212Z,9.60
2023-03-15T16:04:33.329Z,9.90
2023-03-15T16:07:02.892Z,9.20
2023-03-15T16:09:34.012Z,11.30
2023-03-15T16:12:03.622Z,9.30
2023-03-15T16:14:34.402Z,9.60
2023-03-15T16:17:03.426Z,10.00
2023-03-15T16:19:32.326Z,9.90
2023-03-15T16:22:01.196Z,10.30
2023-03-15T16:24:31.581Z,10.60
2023-03-15T16:27:03.856Z,10.50
2023-03-15T16:29:44.605Z,10.20
2023-03-15T16:32:19.299Z,11.20
2023-03-15T16:34:53.737Z,10.70
2023-03-15T16:37:42.088Z,11.90
2023-03-15T16:40:34.296Z,11.70
2023-03-15T16:43:09.011Z,12.10
2023-03-15T16:45:37.963Z,13.60
2023-03-15T16:48:09.317Z,12.20
2023-03-15T16:50:38.619Z,13.10
2023-03-15T16:53:08.205Z,11.70
2023-03-15T16:55:37.683Z,13.10
2023-03-15T16:58:18.195Z,11.80
2023-03-15T17:00:48.658Z,13.60
2023-03-15T17:03:17.964Z,14.50
2023-03-15T17:05:47.974Z,14.60
2023-03-15T17:08:20.061Z,13.20
2023-03-15T17:10:49.566Z,15.20
2023-03-15T17:13:26.920Z,15.90
2023-03-15T17:15:55.909Z,16.50
2023-03-15T17:18:24.951Z,13.50
2023-03-15T17:20:55.967Z,13.60
2023-03-15T17:23:25.683Z,13.80
2023-03-15T17:25:54.409Z,12.70
2023-03-15T17:28:24.573Z,13.50
2023-03-15T17:30:59.813Z,14.00
2023-03-15T17:33:38.955Z,14.20
2023-03-15T17:36:11.814Z,14.00
2023-03-15T17:38:43.964Z,14.30
2023-03-15T17:41:30.339Z,15.30
2023-03-15T17:44:00.139Z,49.00
2023-03-15T17:46:30.367Z,50.00
2023-03-15T17:49:01.043Z,35.20
2023-03-15T17:51:32.284Z,41.40
2023-03-15T17:54:01.726Z,29.20
2023-03-15T17:56:30.685Z,28.50
2023-03-15T17:58:59.660Z,31.00
2023-03-15T18:01:28.829Z,28.40
2023-03-15T18:04:06.374Z,31.90
2023-03-15T18:06:35.694Z,29.10
2023-03-15T18:09:09.790Z,30.60
2023-03-15T18:14:15.388Z,34.20
2023-03-15T18:16:50.490Z,43.80
2023-03-15T18:19:19.440Z,39.00
2023-03-15T18:21:48.222Z,34.50
2023-03-15T18:24:18.103Z,32.40
2023-03-15T18:26:48.450Z,24.90
2023-03-15T18:29:17.164Z,24.70
2023-03-15T18:31:46.367Z,24.00
2023-03-15T18:34:22.303Z,17.80
2023-03-15T18:36:53.465Z,20.30
2023-03-15T18:39:25.471Z,19.90
2023-03-15T18:41:54.290Z,17.50
2023-03-15T18:44:23.304Z,18.30
2023-03-15T18:46:52.126Z,18.10
2023-03-15T18:49:21.673Z,20.10
2023-03-15T18:51:50.576Z,14.70
2023-03-15T18:54:25.625Z,14.30
2023-03-15T18:56:55.098Z,16.90
2023-03-15T18:59:25.838Z,15.90
2023-03-15T19:01:54.981Z,16.00
2023-03-15T19:04:24.257Z,18.90
2023-03-15T19:06:57.602Z,15.20
2023-03-15T19:09:26.605Z,17.20
2023-03-15T19:11:55.465Z,15.80
2023-03-15T19:14:31.361Z,16.20
2023-03-15T19:17:00.728Z,15.10
2023-03-15T19:19:30.105Z,15.90
2023-03-15T19:21:59.209Z,19.30
2023-03-15T19:24:29.180Z,17.30
2023-03-15T19:26:57.926Z,16.80
2023-03-15T19:29:26.664Z,20.70
2023-03-15T19:31:56.609Z,21.80
2023-03-15T19:34:34.194Z,24.40
2023-03-15T19:37:03.736Z,20.50
2023-03-15T19:39:32.643Z,22.00
2023-03-15T19:42:04.691Z,25.50
2023-03-15T19:44:33.847Z,25.00
2023-03-15T19:47:09.074Z,35.20
2023-03-15T19:49:38.232Z,31.00
2023-03-15T19:52:07.216Z,18.60
2023-03-15T19:54:36.610Z,18.20
2023-03-15T19:57:05.410Z,28.60
2023-03-15T19:59:40.392Z,26.60
2023-03-15T20:02:13.365Z,22.80
2023-03-15T20:04:46.056Z,33.40
2023-03-15T20:07:15.360Z,31.30
2023-03-15T20:09:44.573Z,38.90
2023-03-15T20:12:17.569Z,31.30
2023-03-15T20:14:46.594Z,36.20
2023-03-15T20:17:16.249Z,19.40
2023-03-15T20:19:47.769Z,21.10
2023-03-15T20:22:16.871Z,19.50
2023-03-15T20:24:46.033Z,18.30
2023-03-15T20:27:17.047Z,16.60
2023-03-15T20:29:45.868Z,16.10
2023-03-15T20:32:15.561Z,15.80
2023-03-15T20:34:44.545Z,16.00
2023-03-15T20:37:13.935Z,15.60
2023-03-15T20:39:43.948Z,17.00
2023-03-15T20:42:13.195Z,16.30
2023-03-15T20:44:43.170Z,17.50
2023-03-15T20:47:12.127Z,17.00
2023-03-15T20:49:49.413Z,18.70
2023-03-15T20:52:18.146Z,17.50
2023-03-15T20:54:46.980Z,18.80
2023-03-15T20:57:15.697Z,20.50
2023-03-15T20:59:44.506Z,21.80
2023-03-15T21:02:14.945Z,22.50
2023-03-15T21:04:44.929Z,23.10
2023-03-15T21:07:20.266Z,22.70
2023-03-15T21:09:50.701Z,21.40
2023-03-15T21:12:20.329Z,21.70
2023-03-15T21:14:49.939Z,22.30
2023-03-15T21:17:20.613Z,19.20
2023-03-15T21:19:49.716Z,20.40
2023-03-15T21:22:20.364Z,19.40
2023-03-15T21:24:55.923Z,20.00
2023-03-15T21:27:26.545Z,23.90
2023-03-15T21:29:57.593Z,26.20
2023-03-15T21:32:26.636Z,77.10
2023-03-15T21:34:57.567Z,65.20
2023-03-15T21:37:26.475Z,34.70
2023-03-15T21:39:55.448Z,26.10
2023-03-15T21:42:25.435Z,24.40
2023-03-15T21:44:54.183Z,25.60
2023-03-15T21:47:26.349Z,23.50
2023-03-15T21:49:56.082Z,24.10
2023-03-15T21:52:26.640Z,23.20
2023-03-15T21:54:59.218Z,21.90
2023-03-15T21:57:28.227Z,24.40
2023-03-15T21:59:58.595Z,23.80
2023-03-15T22:02:27.598Z,22.00
2023-03-15T22:04:57.135Z,19.80
2023-03-15T22:07:26.194Z,23.80
2023-03-15T22:09:55.134Z,27.60
2023-03-15T22:12:27.682Z,32.20
2023-03-15T22:15:05.576Z,30.00
2023-03-15T22:17:36.432Z,27.90
2023-03-15T22:20:17.341Z,28.10
2023-03-15T22:22:48.294Z,30.70
2023-03-15T22:25:17.533Z,27.50
2023-03-15T22:27:48.130Z,25.10
2023-03-15T22:30:19.330Z,26.40
2023-03-15T22:32:51.036Z,24.40
2023-03-15T22:35:20.915Z,23.50
2023-03-15T22:37:50.229Z,22.10
2023-03-15T22:40:19.670Z,22.70
2023-03-15T22:42:51.273Z,23.50
2023-03-15T22:45:21.174Z,23.40
2023-03-15T22:47:51.655Z,24.30
2023-03-15T22:50:22.363Z,22.60
2023-03-15T22:52:56.028Z,22.70
2023-03-15T22:55:25.380Z,21.00
2023-03-15T22:57:54.610Z,22.70
2023-03-15T23:00:24.220Z,22.50
2023-03-15T23:02:55.202Z,19.90
2023-03-15T23:05:24.448Z,19.70
2023-03-15T23:07:53.519Z,18.80
2023-03-15T23:10:22.721Z,19.60
2023-03-15T23:12:52.350Z,21.70
2023-03-15T23:15:21.553Z,22.10
2023-03-15T23:17:51.222Z,22.10
2023-03-15T23:20:20.867Z,20.20
2023-03-15T23:22:53.419Z,22.20
2023-03-15T23:25:22.951Z,22.70
2023-03-15T23:27:52.120Z,20.30
2023-03-15T23:30:21.581Z,18.70
2023-03-15T23:32:53.489Z,19.70
2023-03-15T23:35:27.147Z,18.10
2023-03-15T23:37:56.974Z,18.00
2023-03-15T23:40:26.502Z,18.20
2023-03-15T23:43:01.239Z,18.50
2023-03-15T23:45:30.705Z,17.90
2023-03-15T23:48:06.512Z,18.30
2023-03-15T23:50:38.047Z,18.80
2023-03-15T23:53:07.206Z,19.40
2023-03-15T23:55:36.722Z,17.50
2023-03-15T23:58:07.296Z,18.60
